Terminal Aerodrome Forecast
Issued by NWS

Home | Current Version | Previous Version | Text Only | Print | Product List | Glossary On
Versions: 1 2 3 4 5 6 7 8 9 10 11 12 13 14 15 16 17 18 19 20 21 22 23 24 25 26 27 28
681
FTUS45 KCYS 241158
TAFRWL
TAF
KRWL 241158Z 2412/2512 04014KT P6SM OVC018
     FM241500 05015G21KT P6SM OVC025
     FM242000 04011KT P6SM BKN035
     FM250300 01009KT P6SM SKC=

USA.gov is the U.S. government's official web portal to all federal, state and local government web resources and services.